sensor_id;sensor_type;location;lat;lon;timestamp;P1;durP1;ratioP1;P2;durP2;ratioP2
47922;SDS011;33688;44.354;9.228;2023-12-20T00:04:23;3.08;;;2.13;;
47922;SDS011;33688;44.354;9.228;2023-12-20T00:06:49;2.60;;;1.80;;
47922;SDS011;33688;44.354;9.228;2023-12-20T00:09:15;2.08;;;1.60;;
47922;SDS011;33688;44.354;9.228;2023-12-20T00:11:42;4.00;;;1.98;;
47922;SDS011;33688;44.354;9.228;2023-12-20T00:14:07;2.97;;;1.88;;
47922;SDS011;33688;44.354;9.228;2023-12-20T00:16:33;2.38;;;1.63;;
47922;SDS011;33688;44.354;9.228;2023-12-20T00:18:59;2.05;;;1.55;;
47922;SDS011;33688;44.354;9.228;2023-12-20T00:21:25;1.63;;;1.52;;
47922;SDS011;33688;44.354;9.228;2023-12-20T00:23:51;1.98;;;1.63;;
47922;SDS011;33688;44.354;9.228;2023-12-20T00:26:17;2.38;;;1.75;;
47922;SDS011;33688;44.354;9.228;2023-12-20T00:28:44;2.22;;;1.75;;
47922;SDS011;33688;44.354;9.228;2023-12-20T00:31:10;2.65;;;1.52;;
47922;SDS011;33688;44.354;9.228;2023-12-20T00:33:35;2.88;;;1.63;;
47922;SDS011;33688;44.354;9.228;2023-12-20T00:36:01;4.07;;;1.55;;
47922;SDS011;33688;44.354;9.228;2023-12-20T00:38:27;2.80;;;1.92;;
47922;SDS011;33688;44.354;9.228;2023-12-20T00:40:53;2.17;;;1.88;;
47922;SDS011;33688;44.354;9.228;2023-12-20T00:43:19;2.03;;;1.70;;
47922;SDS011;33688;44.354;9.228;2023-12-20T00:45:45;2.00;;;1.80;;
47922;SDS011;33688;44.354;9.228;2023-12-20T00:48:12;1.80;;;1.70;;
47922;SDS011;33688;44.354;9.228;2023-12-20T00:50:37;2.05;;;1.38;;
47922;SDS011;33688;44.354;9.228;2023-12-20T00:53:04;3.22;;;1.50;;
47922;SDS011;33688;44.354;9.228;2023-12-20T00:55:30;2.33;;;1.73;;
47922;SDS011;33688;44.354;9.228;2023-12-20T00:57:56;1.73;;;1.58;;
47922;SDS011;33688;44.354;9.228;2023-12-20T01:00:22;1.42;;;1.30;;
47922;SDS011;33688;44.354;9.228;2023-12-20T01:02:48;1.65;;;1.40;;
47922;SDS011;33688;44.354;9.228;2023-12-20T01:05:20;2.00;;;1.52;;
47922;SDS011;33688;44.354;9.228;2023-12-20T01:07:49;2.42;;;1.85;;
47922;SDS011;33688;44.354;9.228;2023-12-20T01:10:15;1.77;;;1.58;;
47922;SDS011;33688;44.354;9.228;2023-12-20T01:12:42;2.28;;;1.90;;
47922;SDS011;33688;44.354;9.228;2023-12-20T01:15:09;2.35;;;1.60;;
47922;SDS011;33688;44.354;9.228;2023-12-20T01:17:35;2.28;;;1.73;;
47922;SDS011;33688;44.354;9.228;2023-12-20T01:20:01;1.70;;;1.42;;
47922;SDS011;33688;44.354;9.228;2023-12-20T01:22:27;2.05;;;1.58;;
47922;SDS011;33688;44.354;9.228;2023-12-20T01:24:53;2.35;;;1.95;;
47922;SDS011;33688;44.354;9.228;2023-12-20T01:27:19;1.73;;;1.30;;
47922;SDS011;33688;44.354;9.228;2023-12-20T01:29:44;2.90;;;1.80;;
47922;SDS011;33688;44.354;9.228;2023-12-20T01:32:10;2.05;;;1.60;;
47922;SDS011;33688;44.354;9.228;2023-12-20T01:34:37;1.80;;;1.63;;
47922;SDS011;33688;44.354;9.228;2023-12-20T01:37:03;2.65;;;1.88;;
47922;SDS011;33688;44.354;9.228;2023-12-20T01:39:30;1.88;;;1.40;;
47922;SDS011;33688;44.354;9.228;2023-12-20T01:41:57;1.77;;;1.30;;
47922;SDS011;33688;44.354;9.228;2023-12-20T01:44:23;1.70;;;1.40;;
47922;SDS011;33688;44.354;9.228;2023-12-20T01:46:49;1.88;;;1.67;;
47922;SDS011;33688;44.354;9.228;2023-12-20T01:49:14;2.65;;;1.90;;
47922;SDS011;33688;44.354;9.228;2023-12-20T01:51:41;2.05;;;1.50;;
47922;SDS011;33688;44.354;9.228;2023-12-20T01:54:09;1.50;;;1.40;;
47922;SDS011;33688;44.354;9.228;2023-12-20T01:56:37;1.63;;;1.35;;
47922;SDS011;33688;44.354;9.228;2023-12-20T01:59:05;1.67;;;1.25;;
47922;SDS011;33688;44.354;9.228;2023-12-20T02:01:33;2.30;;;1.67;;
47922;SDS011;33688;44.354;9.228;2023-12-20T02:03:59;1.80;;;1.55;;
47922;SDS011;33688;44.354;9.228;2023-12-20T02:06:25;1.85;;;1.30;;
47922;SDS011;33688;44.354;9.228;2023-12-20T02:08:57;2.78;;;1.60;;
47922;SDS011;33688;44.354;9.228;2023-12-20T02:11:24;2.47;;;1.75;;
47922;SDS011;33688;44.354;9.228;2023-12-20T02:13:52;3.25;;;1.77;;
47922;SDS011;33688;44.354;9.228;2023-12-20T02:16:19;1.67;;;1.50;;
47922;SDS011;33688;44.354;9.228;2023-12-20T02:18:45;1.33;;;1.20;;
47922;SDS011;33688;44.354;9.228;2023-12-20T02:21:11;3.70;;;1.35;;
47922;SDS011;33688;44.354;9.228;2023-12-20T02:23:36;1.50;;;1.40;;
47922;SDS011;33688;44.354;9.228;2023-12-20T02:26:04;1.77;;;1.60;;
47922;SDS011;33688;44.354;9.228;2023-12-20T02:28:31;1.90;;;1.65;;
47922;SDS011;33688;44.354;9.228;2023-12-20T02:30:57;3.00;;;1.73;;
47922;SDS011;33688;44.354;9.228;2023-12-20T02:33:25;2.22;;;2.03;;
47922;SDS011;33688;44.354;9.228;2023-12-20T02:35:51;2.10;;;1.70;;
47922;SDS011;33688;44.354;9.228;2023-12-20T02:38:17;1.60;;;1.50;;
47922;SDS011;33688;44.354;9.228;2023-12-20T02:40:43;1.95;;;1.55;;
47922;SDS011;33688;44.354;9.228;2023-12-20T02:43:09;2.15;;;1.55;;
47922;SDS011;33688;44.354;9.228;2023-12-20T02:45:36;2.03;;;1.67;;
47922;SDS011;33688;44.354;9.228;2023-12-20T02:48:01;2.55;;;1.55;;
47922;SDS011;33688;44.354;9.228;2023-12-20T02:50:28;1.80;;;1.65;;
47922;SDS011;33688;44.354;9.228;2023-12-20T02:52:55;1.42;;;1.27;;
47922;SDS011;33688;44.354;9.228;2023-12-20T02:55:21;1.98;;;1.73;;
47922;SDS011;33688;44.354;9.228;2023-12-20T02:57:48;1.30;;;1.20;;
47922;SDS011;33688;44.354;9.228;2023-12-20T03:00:14;1.80;;;1.50;;
47922;SDS011;33688;44.354;9.228;2023-12-20T03:02:41;1.88;;;1.67;;
47922;SDS011;33688;44.354;9.228;2023-12-20T03:05:07;2.25;;;1.52;;
47922;SDS011;33688;44.354;9.228;2023-12-20T03:07:34;2.20;;;1.60;;
47922;SDS011;33688;44.354;9.228;2023-12-20T03:10:03;2.10;;;1.50;;
47922;SDS011;33688;44.354;9.228;2023-12-20T03:12:32;1.65;;;1.40;;
47922;SDS011;33688;44.354;9.228;2023-12-20T03:14:58;3.25;;;1.45;;
47922;SDS011;33688;44.354;9.228;2023-12-20T03:17:24;2.05;;;1.85;;
47922;SDS011;33688;44.354;9.228;2023-12-20T03:19:50;1.88;;;1.60;;
47922;SDS011;33688;44.354;9.228;2023-12-20T03:22:16;1.80;;;1.55;;
47922;SDS011;33688;44.354;9.228;2023-12-20T03:24:41;1.60;;;1.50;;
47922;SDS011;33688;44.354;9.228;2023-12-20T03:27:07;1.30;;;1.20;;
47922;SDS011;33688;44.354;9.228;2023-12-20T03:29:34;2.08;;;1.30;;
47922;SDS011;33688;44.354;9.228;2023-12-20T03:32:00;1.40;;;1.30;;
47922;SDS011;33688;44.354;9.228;2023-12-20T03:34:26;1.50;;;1.23;;
47922;SDS011;33688;44.354;9.228;2023-12-20T03:36:52;1.88;;;1.65;;
47922;SDS011;33688;44.354;9.228;2023-12-20T03:39:18;1.23;;;1.13;;
47922;SDS011;33688;44.354;9.228;2023-12-20T03:41:43;1.60;;;1.50;;
47922;SDS011;33688;44.354;9.228;2023-12-20T03:44:10;1.33;;;1.20;;
47922;SDS011;33688;44.354;9.228;2023-12-20T03:46:35;1.40;;;1.30;;
47922;SDS011;33688;44.354;9.228;2023-12-20T03:49:02;1.42;;;1.33;;
47922;SDS011;33688;44.354;9.228;2023-12-20T03:51:29;1.92;;;1.52;;
47922;SDS011;33688;44.354;9.228;2023-12-20T03:53:54;1.70;;;1.48;;
47922;SDS011;33688;44.354;9.228;2023-12-20T03:56:20;1.38;;;1.27;;
47922;SDS011;33688;44.354;9.228;2023-12-20T03:58:46;1.30;;;1.20;;
47922;SDS011;33688;44.354;9.228;2023-12-20T04:01:12;1.48;;;1.38;;
47922;SDS011;33688;44.354;9.228;2023-12-20T04:03:38;1.40;;;1.30;;
47922;SDS011;33688;44.354;9.228;2023-12-20T04:06:07;4.00;;;1.38;;
47922;SDS011;33688;44.354;9.228;2023-12-20T04:08:32;1.48;;;1.30;;
47922;SDS011;33688;44.354;9.228;2023-12-20T04:10:58;1.50;;;1.40;;
47922;SDS011;33688;44.354;9.228;2023-12-20T04:13:25;2.33;;;1.60;;
47922;SDS011;33688;44.354;9.228;2023-12-20T04:15:53;1.65;;;1.42;;
47922;SDS011;33688;44.354;9.228;2023-12-20T04:18:19;1.35;;;1.20;;
47922;SDS011;33688;44.354;9.228;2023-12-20T04:20:45;1.50;;;1.10;;
47922;SDS011;33688;44.354;9.228;2023-12-20T04:23:11;1.58;;;1.38;;
47922;SDS011;33688;44.354;9.228;2023-12-20T04:25:37;2.00;;;1.42;;
47922;SDS011;33688;44.354;9.228;2023-12-20T04:28:02;1.58;;;1.35;;
47922;SDS011;33688;44.354;9.228;2023-12-20T04:30:29;1.48;;;1.33;;
47922;SDS011;33688;44.354;9.228;2023-12-20T04:32:56;1.60;;;1.50;;
47922;SDS011;33688;44.354;9.228;2023-12-20T04:35:22;1.85;;;1.13;;
47922;SDS011;33688;44.354;9.228;2023-12-20T04:37:49;1.25;;;1.15;;
47922;SDS011;33688;44.354;9.228;2023-12-20T04:40:15;1.65;;;1.15;;
47922;SDS011;33688;44.354;9.228;2023-12-20T04:42:40;2.15;;;1.50;;
47922;SDS011;33688;44.354;9.228;2023-12-20T04:45:06;1.45;;;1.27;;
47922;SDS011;33688;44.354;9.228;2023-12-20T04:47:33;1.25;;;1.15;;
47922;SDS011;33688;44.354;9.228;2023-12-20T04:49:58;2.10;;;1.58;;
47922;SDS011;33688;44.354;9.228;2023-12-20T04:52:25;1.40;;;1.20;;
47922;SDS011;33688;44.354;9.228;2023-12-20T04:54:51;1.60;;;1.23;;
47922;SDS011;33688;44.354;9.228;2023-12-20T04:57:17;2.28;;;1.40;;
47922;SDS011;33688;44.354;9.228;2023-12-20T04:59:43;1.90;;;1.48;;
47922;SDS011;33688;44.354;9.228;2023-12-20T05:02:09;1.48;;;1.17;;
47922;SDS011;33688;44.354;9.228;2023-12-20T05:04:36;1.63;;;1.30;;
47922;SDS011;33688;44.354;9.228;2023-12-20T05:07:01;2.17;;;1.40;;
47922;SDS011;33688;44.354;9.228;2023-12-20T05:09:29;1.55;;;1.33;;
47922;SDS011;33688;44.354;9.228;2023-12-20T05:11:54;1.25;;;1.15;;
47922;SDS011;33688;44.354;9.228;2023-12-20T05:14:20;1.35;;;1.20;;
47922;SDS011;33688;44.354;9.228;2023-12-20T05:16:46;1.55;;;1.23;;
47922;SDS011;33688;44.354;9.228;2023-12-20T05:19:11;2.97;;;1.33;;
47922;SDS011;33688;44.354;9.228;2023-12-20T05:21:38;1.60;;;1.35;;
47922;SDS011;33688;44.354;9.228;2023-12-20T05:24:04;1.83;;;1.20;;
47922;SDS011;33688;44.354;9.228;2023-12-20T05:26:31;1.02;;;0.93;;
47922;SDS011;33688;44.354;9.228;2023-12-20T05:28:57;1.40;;;1.30;;
47922;SDS011;33688;44.354;9.228;2023-12-20T05:31:23;1.05;;;0.95;;
47922;SDS011;33688;44.354;9.228;2023-12-20T05:33:49;1.33;;;0.98;;
47922;SDS011;33688;44.354;9.228;2023-12-20T05:36:15;0.80;;;0.80;;
47922;SDS011;33688;44.354;9.228;2023-12-20T05:38:41;1.40;;;1.30;;
47922;SDS011;33688;44.354;9.228;2023-12-20T05:41:07;1.17;;;1.08;;
47922;SDS011;33688;44.354;9.228;2023-12-20T05:43:34;1.25;;;1.13;;
47922;SDS011;33688;44.354;9.228;2023-12-20T05:46:02;1.10;;;1.00;;
47922;SDS011;33688;44.354;9.228;2023-12-20T05:48:28;1.48;;;1.38;;
47922;SDS011;33688;44.354;9.228;2023-12-20T05:50:54;2.63;;;1.25;;
47922;SDS011;33688;44.354;9.228;2023-12-20T05:53:19;0.85;;;0.85;;
47922;SDS011;33688;44.354;9.228;2023-12-20T05:55:46;1.35;;;1.25;;
47922;SDS011;33688;44.354;9.228;2023-12-20T05:58:12;1.48;;;1.02;;
47922;SDS011;33688;44.354;9.228;2023-12-20T06:00:38;1.63;;;1.27;;
47922;SDS011;33688;44.354;9.228;2023-12-20T06:03:04;1.48;;;1.38;;
47922;SDS011;33688;44.354;9.228;2023-12-20T06:05:30;1.20;;;1.10;;
47922;SDS011;33688;44.354;9.228;2023-12-20T06:07:56;1.45;;;1.20;;
47922;SDS011;33688;44.354;9.228;2023-12-20T06:10:26;0.90;;;0.88;;
47922;SDS011;33688;44.354;9.228;2023-12-20T06:12:52;2.30;;;2.10;;
47922;SDS011;33688;44.354;9.228;2023-12-20T06:15:18;1.52;;;1.17;;
47922;SDS011;33688;44.354;9.228;2023-12-20T06:17:44;1.08;;;0.90;;
47922;SDS011;33688;44.354;9.228;2023-12-20T06:20:09;1.25;;;1.10;;
47922;SDS011;33688;44.354;9.228;2023-12-20T06:22:36;1.90;;;1.17;;
47922;SDS011;33688;44.354;9.228;2023-12-20T06:25:02;2.83;;;1.10;;
47922;SDS011;33688;44.354;9.228;2023-12-20T06:27:28;1.60;;;1.33;;
47922;SDS011;33688;44.354;9.228;2023-12-20T06:29:55;1.10;;;1.00;;
47922;SDS011;33688;44.354;9.228;2023-12-20T06:32:22;1.40;;;1.00;;
47922;SDS011;33688;44.354;9.228;2023-12-20T06:34:48;1.23;;;1.10;;
47922;SDS011;33688;44.354;9.228;2023-12-20T06:37:14;1.05;;;0.95;;
47922;SDS011;33688;44.354;9.228;2023-12-20T06:39:40;2.08;;;1.20;;
47922;SDS011;33688;44.354;9.228;2023-12-20T06:42:07;1.38;;;1.00;;
47922;SDS011;33688;44.354;9.228;2023-12-20T06:44:33;1.10;;;1.00;;
47922;SDS011;33688;44.354;9.228;2023-12-20T06:46:59;1.52;;;1.30;;
47922;SDS011;33688;44.354;9.228;2023-12-20T06:49:25;1.98;;;1.45;;
47922;SDS011;33688;44.354;9.228;2023-12-20T06:51:51;1.15;;;1.05;;
47922;SDS011;33688;44.354;9.228;2023-12-20T06:54:18;3.08;;;1.33;;
47922;SDS011;33688;44.354;9.228;2023-12-20T06:56:44;1.15;;;1.05;;
47922;SDS011;33688;44.354;9.228;2023-12-20T06:59:10;1.25;;;1.10;;
47922;SDS011;33688;44.354;9.228;2023-12-20T07:04:05;1.75;;;1.23;;
47922;SDS011;33688;44.354;9.228;2023-12-20T07:06:30;1.23;;;1.13;;
47922;SDS011;33688;44.354;9.228;2023-12-20T07:08:58;1.73;;;0.90;;
47922;SDS011;33688;44.354;9.228;2023-12-20T07:11:24;1.02;;;0.95;;
47922;SDS011;33688;44.354;9.228;2023-12-20T07:13:51;1.30;;;1.20;;
47922;SDS011;33688;44.354;9.228;2023-12-20T07:16:17;1.00;;;1.00;;
47922;SDS011;33688;44.354;9.228;2023-12-20T07:18:43;1.10;;;1.00;;
47922;SDS011;33688;44.354;9.228;2023-12-20T07:21:08;0.75;;;0.70;;
47922;SDS011;33688;44.354;9.228;2023-12-20T07:23:34;1.05;;;0.90;;
47922;SDS011;33688;44.354;9.228;2023-12-20T07:26:00;1.55;;;1.23;;
47922;SDS011;33688;44.354;9.228;2023-12-20T07:28:25;1.15;;;1.08;;
47922;SDS011;33688;44.354;9.228;2023-12-20T07:30:51;1.35;;;0.90;;
47922;SDS011;33688;44.354;9.228;2023-12-20T07:33:18;0.90;;;0.90;;
47922;SDS011;33688;44.354;9.228;2023-12-20T07:35:46;1.17;;;1.08;;
47922;SDS011;33688;44.354;9.228;2023-12-20T07:38:12;1.33;;;1.23;;
47922;SDS011;33688;44.354;9.228;2023-12-20T07:40:38;1.58;;;1.20;;
47922;SDS011;33688;44.354;9.228;2023-12-20T07:43:06;3.10;;;1.00;;
47922;SDS011;33688;44.354;9.228;2023-12-20T07:45:33;1.63;;;1.00;;
47922;SDS011;33688;44.354;9.228;2023-12-20T07:47:59;1.42;;;1.00;;
47922;SDS011;33688;44.354;9.228;2023-12-20T07:50:28;6.07;;;1.10;;
47922;SDS011;33688;44.354;9.228;2023-12-20T07:52:53;3.17;;;0.90;;
47922;SDS011;33688;44.354;9.228;2023-12-20T07:55:20;1.10;;;1.00;;
47922;SDS011;33688;44.354;9.228;2023-12-20T07:57:46;4.32;;;0.95;;
47922;SDS011;33688;44.354;9.228;2023-12-20T08:00:12;1.15;;;1.00;;
47922;SDS011;33688;44.354;9.228;2023-12-20T08:02:39;1.27;;;1.13;;
47922;SDS011;33688;44.354;9.228;2023-12-20T08:05:05;1.77;;;1.38;;
47922;SDS011;33688;44.354;9.228;2023-12-20T08:07:31;1.55;;;1.20;;
47922;SDS011;33688;44.354;9.228;2023-12-20T08:09:59;10.00;;;1.58;;
47922;SDS011;33688;44.354;9.228;2023-12-20T08:12:26;1.92;;;1.30;;
47922;SDS011;33688;44.354;9.228;2023-12-20T08:14:54;1.58;;;1.05;;
47922;SDS011;33688;44.354;9.228;2023-12-20T08:17:20;1.65;;;1.23;;
47922;SDS011;33688;44.354;9.228;2023-12-20T08:19:45;1.80;;;1.50;;
47922;SDS011;33688;44.354;9.228;2023-12-20T08:22:11;2.15;;;1.15;;
47922;SDS011;33688;44.354;9.228;2023-12-20T08:24:37;1.80;;;1.42;;
47922;SDS011;33688;44.354;9.228;2023-12-20T08:27:03;1.27;;;1.08;;
47922;SDS011;33688;44.354;9.228;2023-12-20T08:29:30;1.40;;;1.27;;
47922;SDS011;33688;44.354;9.228;2023-12-20T08:31:56;2.83;;;1.00;;
47922;SDS011;33688;44.354;9.228;2023-12-20T08:34:22;2.38;;;1.10;;
47922;SDS011;33688;44.354;9.228;2023-12-20T08:36:51;1.10;;;0.98;;
47922;SDS011;33688;44.354;9.228;2023-12-20T08:39:19;2.80;;;1.85;;
47922;SDS011;33688;44.354;9.228;2023-12-20T08:41:47;1.80;;;1.25;;
47922;SDS011;33688;44.354;9.228;2023-12-20T08:44:13;3.70;;;1.85;;
47922;SDS011;33688;44.354;9.228;2023-12-20T08:46:39;1.85;;;1.50;;
47922;SDS011;33688;44.354;9.228;2023-12-20T08:49:05;2.75;;;1.60;;
47922;SDS011;33688;44.354;9.228;2023-12-20T08:51:30;3.45;;;1.40;;
47922;SDS011;33688;44.354;9.228;2023-12-20T08:53:56;2.63;;;1.50;;
47922;SDS011;33688;44.354;9.228;2023-12-20T08:56:22;1.42;;;1.20;;
47922;SDS011;33688;44.354;9.228;2023-12-20T08:58:49;2.50;;;1.38;;
47922;SDS011;33688;44.354;9.228;2023-12-20T09:01:15;3.05;;;1.30;;
47922;SDS011;33688;44.354;9.228;2023-12-20T09:03:42;2.17;;;1.33;;
47922;SDS011;33688;44.354;9.228;2023-12-20T09:06:08;3.78;;;1.50;;
47922;SDS011;33688;44.354;9.228;2023-12-20T09:08:34;3.35;;;1.40;;
47922;SDS011;33688;44.354;9.228;2023-12-20T09:11:00;3.03;;;1.40;;
47922;SDS011;33688;44.354;9.228;2023-12-20T09:13:28;3.00;;;1.10;;
47922;SDS011;33688;44.354;9.228;2023-12-20T09:15:54;2.75;;;1.10;;
47922;SDS011;33688;44.354;9.228;2023-12-20T09:18:23;1.77;;;1.40;;
47922;SDS011;33688;44.354;9.228;2023-12-20T09:20:49;3.05;;;1.75;;
47922;SDS011;33688;44.354;9.228;2023-12-20T09:23:16;5.93;;;1.67;;
47922;SDS011;33688;44.354;9.228;2023-12-20T09:25:43;2.50;;;1.40;;
47922;SDS011;33688;44.354;9.228;2023-12-20T09:28:09;3.78;;;1.50;;
47922;SDS011;33688;44.354;9.228;2023-12-20T09:30:35;2.00;;;1.25;;
47922;SDS011;33688;44.354;9.228;2023-12-20T09:33:04;1.98;;;1.05;;
47922;SDS011;33688;44.354;9.228;2023-12-20T09:35:32;3.38;;;1.70;;
47922;SDS011;33688;44.354;9.228;2023-12-20T09:37:57;3.30;;;1.60;;
47922;SDS011;33688;44.354;9.228;2023-12-20T09:40:23;4.68;;;1.75;;
47922;SDS011;33688;44.354;9.228;2023-12-20T09:43:08;1.52;;;1.35;;
47922;SDS011;33688;44.354;9.228;2023-12-20T09:45:39;4.47;;;1.52;;
47922;SDS011;33688;44.354;9.228;2023-12-20T09:48:05;2.03;;;1.52;;
47922;SDS011;33688;44.354;9.228;2023-12-20T09:50:36;1.98;;;1.50;;
47922;SDS011;33688;44.354;9.228;2023-12-20T09:53:02;3.65;;;1.80;;
47922;SDS011;33688;44.354;9.228;2023-12-20T09:55:30;3.17;;;1.58;;
47922;SDS011;33688;44.354;9.228;2023-12-20T09:57:57;1.92;;;1.30;;
47922;SDS011;33688;44.354;9.228;2023-12-20T10:00:25;1.50;;;1.05;;
47922;SDS011;33688;44.354;9.228;2023-12-20T10:02:56;2.70;;;1.80;;
47922;SDS011;33688;44.354;9.228;2023-12-20T10:08:20;2.58;;;1.60;;
47922;SDS011;33688;44.354;9.228;2023-12-20T10:10:47;2.28;;;1.40;;
47922;SDS011;33688;44.354;9.228;2023-12-20T10:13:14;2.78;;;1.85;;
47922;SDS011;33688;44.354;9.228;2023-12-20T10:15:40;4.90;;;1.48;;
47922;SDS011;33688;44.354;9.228;2023-12-20T10:18:06;5.95;;;1.45;;
47922;SDS011;33688;44.354;9.228;2023-12-20T10:20:34;2.40;;;1.77;;
47922;SDS011;33688;44.354;9.228;2023-12-20T10:23:00;1.80;;;1.45;;
47922;SDS011;33688;44.354;9.228;2023-12-20T10:25:29;2.80;;;1.77;;
47922;SDS011;33688;44.354;9.228;2023-12-20T10:30:46;5.22;;;1.70;;
47922;SDS011;33688;44.354;9.228;2023-12-20T10:33:12;4.20;;;1.85;;
47922;SDS011;33688;44.354;9.228;2023-12-20T10:35:38;3.13;;;1.73;;
47922;SDS011;33688;44.354;9.228;2023-12-20T10:38:06;3.95;;;1.98;;
47922;SDS011;33688;44.354;9.228;2023-12-20T10:40:36;3.33;;;1.73;;
47922;SDS011;33688;44.354;9.228;2023-12-20T10:43:02;4.07;;;2.10;;
47922;SDS011;33688;44.354;9.228;2023-12-20T10:45:29;8.43;;;2.28;;
47922;SDS011;33688;44.354;9.228;2023-12-20T10:47:55;3.08;;;2.20;;
47922;SDS011;33688;44.354;9.228;2023-12-20T10:50:27;2.03;;;1.65;;
47922;SDS011;33688;44.354;9.228;2023-12-20T10:52:56;3.58;;;1.92;;
47922;SDS011;33688;44.354;9.228;2023-12-20T10:55:23;2.83;;;1.95;;
47922;SDS011;33688;44.354;9.228;2023-12-20T10:57:50;2.95;;;1.70;;
47922;SDS011;33688;44.354;9.228;2023-12-20T11:00:18;7.95;;;1.73;;
47922;SDS011;33688;44.354;9.228;2023-12-20T11:02:46;4.47;;;2.22;;
47922;SDS011;33688;44.354;9.228;2023-12-20T11:05:36;6.00;;;2.13;;
47922;SDS011;33688;44.354;9.228;2023-12-20T11:08:39;5.13;;;2.13;;
47922;SDS011;33688;44.354;9.228;2023-12-20T11:11:26;5.18;;;1.73;;
47922;SDS011;33688;44.354;9.228;2023-12-20T11:14:14;5.32;;;2.28;;
47922;SDS011;33688;44.354;9.228;2023-12-20T11:17:08;2.67;;;2.00;;
47922;SDS011;33688;44.354;9.228;2023-12-20T11:20:03;6.72;;;2.22;;
47922;SDS011;33688;44.354;9.228;2023-12-20T11:22:31;5.85;;;2.55;;
47922;SDS011;33688;44.354;9.228;2023-12-20T11:25:06;5.80;;;2.53;;
47922;SDS011;33688;44.354;9.228;2023-12-20T11:27:35;3.00;;;2.17;;
47922;SDS011;33688;44.354;9.228;2023-12-20T11:30:06;3.30;;;2.17;;
47922;SDS011;33688;44.354;9.228;2023-12-20T11:32:34;2.60;;;1.95;;
47922;SDS011;33688;44.354;9.228;2023-12-20T11:37:37;5.35;;;1.67;;
47922;SDS011;33688;44.354;9.228;2023-12-20T11:40:08;3.17;;;2.00;;
47922;SDS011;33688;44.354;9.228;2023-12-20T11:42:38;3.30;;;2.20;;
47922;SDS011;33688;44.354;9.228;2023-12-20T11:45:19;3.03;;;1.92;;
47922;SDS011;33688;44.354;9.228;2023-12-20T11:47:47;2.15;;;1.90;;
47922;SDS011;33688;44.354;9.228;2023-12-20T11:50:15;2.78;;;1.75;;
47922;SDS011;33688;44.354;9.228;2023-12-20T11:52:42;2.30;;;1.75;;
47922;SDS011;33688;44.354;9.228;2023-12-20T11:55:08;3.53;;;2.17;;
47922;SDS011;33688;44.354;9.228;2023-12-20T11:57:33;3.03;;;2.28;;
47922;SDS011;33688;44.354;9.228;2023-12-20T11:59:59;2.70;;;1.75;;
47922;SDS011;33688;44.354;9.228;2023-12-20T12:02:25;2.38;;;2.10;;
47922;SDS011;33688;44.354;9.228;2023-12-20T12:04:52;2.47;;;1.90;;
47922;SDS011;33688;44.354;9.228;2023-12-20T12:07:18;2.13;;;1.83;;
47922;SDS011;33688;44.354;9.228;2023-12-20T12:09:45;3.05;;;2.22;;
47922;SDS011;33688;44.354;9.228;2023-12-20T12:12:12;2.42;;;1.83;;
47922;SDS011;33688;44.354;9.228;2023-12-20T12:14:38;3.85;;;2.20;;
47922;SDS011;33688;44.354;9.228;2023-12-20T12:17:12;4.53;;;2.47;;
47922;SDS011;33688;44.354;9.228;2023-12-20T12:19:39;2.72;;;2.08;;
47922;SDS011;33688;44.354;9.228;2023-12-20T12:22:08;3.83;;;1.90;;
47922;SDS011;33688;44.354;9.228;2023-12-20T12:24:48;3.70;;;2.50;;
47922;SDS011;33688;44.354;9.228;2023-12-20T12:27:15;3.00;;;2.42;;
47922;SDS011;33688;44.354;9.228;2023-12-20T12:29:41;2.25;;;2.05;;
47922;SDS011;33688;44.354;9.228;2023-12-20T12:32:28;2.35;;;2.05;;
47922;SDS011;33688;44.354;9.228;2023-12-20T12:34:54;4.50;;;2.53;;
47922;SDS011;33688;44.354;9.228;2023-12-20T12:37:23;2.13;;;1.80;;
47922;SDS011;33688;44.354;9.228;2023-12-20T12:39:54;3.08;;;2.28;;
47922;SDS011;33688;44.354;9.228;2023-12-20T12:42:20;4.55;;;2.65;;
47922;SDS011;33688;44.354;9.228;2023-12-20T12:44:47;4.15;;;2.10;;
47922;SDS011;33688;44.354;9.228;2023-12-20T12:47:13;3.28;;;2.30;;
47922;SDS011;33688;44.354;9.228;2023-12-20T12:49:41;2.90;;;2.22;;
47922;SDS011;33688;44.354;9.228;2023-12-20T12:52:07;3.65;;;2.30;;
47922;SDS011;33688;44.354;9.228;2023-12-20T12:54:33;2.30;;;2.10;;
47922;SDS011;33688;44.354;9.228;2023-12-20T12:57:01;2.88;;;2.33;;
47922;SDS011;33688;44.354;9.228;2023-12-20T12:59:28;3.22;;;1.90;;
47922;SDS011;33688;44.354;9.228;2023-12-20T13:01:53;3.63;;;2.28;;
47922;SDS011;33688;44.354;9.228;2023-12-20T13:04:20;4.18;;;2.47;;
47922;SDS011;33688;44.354;9.228;2023-12-20T13:06:47;3.15;;;2.40;;
47922;SDS011;33688;44.354;9.228;2023-12-20T13:09:15;3.33;;;2.42;;
47922;SDS011;33688;44.354;9.228;2023-12-20T13:11:41;3.78;;;2.30;;
47922;SDS011;33688;44.354;9.228;2023-12-20T13:14:07;2.50;;;2.17;;
47922;SDS011;33688;44.354;9.228;2023-12-20T13:16:35;2.88;;;2.00;;
47922;SDS011;33688;44.354;9.228;2023-12-20T13:19:03;2.80;;;2.17;;
47922;SDS011;33688;44.354;9.228;2023-12-20T13:21:29;2.20;;;1.98;;
47922;SDS011;33688;44.354;9.228;2023-12-20T13:23:56;3.30;;;2.22;;
47922;SDS011;33688;44.354;9.228;2023-12-20T13:26:21;3.25;;;2.17;;
47922;SDS011;33688;44.354;9.228;2023-12-20T13:28:48;2.33;;;1.85;;
47922;SDS011;33688;44.354;9.228;2023-12-20T13:31:14;2.00;;;1.80;;
47922;SDS011;33688;44.354;9.228;2023-12-20T13:33:40;4.68;;;2.10;;
47922;SDS011;33688;44.354;9.228;2023-12-20T13:36:07;2.88;;;1.90;;
47922;SDS011;33688;44.354;9.228;2023-12-20T13:38:33;4.05;;;2.20;;
47922;SDS011;33688;44.354;9.228;2023-12-20T13:40:59;4.70;;;2.42;;
47922;SDS011;33688;44.354;9.228;2023-12-20T13:43:25;3.47;;;2.45;;
47922;SDS011;33688;44.354;9.228;2023-12-20T13:45:52;2.85;;;2.25;;
47922;SDS011;33688;44.354;9.228;2023-12-20T13:48:18;5.80;;;2.05;;
47922;SDS011;33688;44.354;9.228;2023-12-20T13:50:44;5.85;;;2.47;;
47922;SDS011;33688;44.354;9.228;2023-12-20T13:53:10;2.65;;;2.00;;
47922;SDS011;33688;44.354;9.228;2023-12-20T13:55:37;3.60;;;1.80;;
47922;SDS011;33688;44.354;9.228;2023-12-20T13:58:03;3.70;;;2.10;;
47922;SDS011;33688;44.354;9.228;2023-12-20T14:00:29;3.33;;;2.22;;
47922;SDS011;33688;44.354;9.228;2023-12-20T14:02:54;5.88;;;2.80;;
47922;SDS011;33688;44.354;9.228;2023-12-20T14:05:21;5.13;;;1.83;;
47922;SDS011;33688;44.354;9.228;2023-12-20T14:07:48;6.25;;;2.00;;
47922;SDS011;33688;44.354;9.228;2023-12-20T14:10:15;2.90;;;1.98;;
47922;SDS011;33688;44.354;9.228;2023-12-20T14:12:44;3.00;;;1.95;;
47922;SDS011;33688;44.354;9.228;2023-12-20T14:15:11;2.58;;;1.88;;
47922;SDS011;33688;44.354;9.228;2023-12-20T14:17:38;2.72;;;2.20;;
47922;SDS011;33688;44.354;9.228;2023-12-20T14:20:06;2.45;;;1.80;;
47922;SDS011;33688;44.354;9.228;2023-12-20T14:22:33;2.72;;;2.22;;
47922;SDS011;33688;44.354;9.228;2023-12-20T14:25:01;3.35;;;2.30;;
47922;SDS011;33688;44.354;9.228;2023-12-20T14:27:28;4.38;;;2.17;;
47922;SDS011;33688;44.354;9.228;2023-12-20T14:29:54;3.60;;;2.05;;
47922;SDS011;33688;44.354;9.228;2023-12-20T14:32:20;1.77;;;1.42;;
47922;SDS011;33688;44.354;9.228;2023-12-20T14:34:46;6.45;;;2.72;;
47922;SDS011;33688;44.354;9.228;2023-12-20T14:37:12;4.40;;;2.05;;
47922;SDS011;33688;44.354;9.228;2023-12-20T14:39:38;3.60;;;2.67;;
47922;SDS011;33688;44.354;9.228;2023-12-20T14:42:07;1.73;;;1.60;;
47922;SDS011;33688;44.354;9.228;2023-12-20T14:44:39;2.83;;;1.70;;
47922;SDS011;33688;44.354;9.228;2023-12-20T14:47:27;2.50;;;2.22;;
47922;SDS011;33688;44.354;9.228;2023-12-20T14:49:52;2.50;;;1.70;;
47922;SDS011;33688;44.354;9.228;2023-12-20T14:52:19;3.83;;;2.10;;
47922;SDS011;33688;44.354;9.228;2023-12-20T14:54:45;5.45;;;2.00;;
47922;SDS011;33688;44.354;9.228;2023-12-20T14:57:12;7.60;;;2.38;;
47922;SDS011;33688;44.354;9.228;2023-12-20T14:59:40;3.50;;;2.35;;
47922;SDS011;33688;44.354;9.228;2023-12-20T15:02:09;2.58;;;1.92;;